createdAt,value
2022-09-03T00:01:26.120Z,101623.25
2022-09-03T00:03:56.569Z,101620.63
2022-09-03T00:06:40.153Z,101622.38
2022-09-03T00:09:16.169Z,101615.34
2022-09-03T00:12:09.719Z,101619.72
2022-09-03T00:14:43.340Z,101612.72
2022-09-03T00:17:15.088Z,101619.75
2022-09-03T00:19:47.061Z,101609.16
2022-09-03T00:22:27.138Z,101620.63
2022-09-03T00:24:54.009Z,101612.69
2022-09-03T00:27:25.208Z,101616.22
2022-09-03T00:29:56.671Z,101613.53
2022-09-03T00:32:34.834Z,101610.88
2022-09-03T00:35:04.578Z,101612.69
2022-09-03T00:37:35.503Z,101610.06
2022-09-03T00:40:10.569Z,101597.69
2022-09-03T00:42:55.249Z,101608.31
2022-09-03T00:45:35.174Z,101610.97
2022-09-03T00:48:28.351Z,101606.53
2022-09-03T00:51:25.598Z,101603.00
2022-09-03T00:54:17.063Z,101600.38
2022-09-03T00:56:53.778Z,101603.00
2022-09-03T00:59:41.997Z,101609.19
2022-09-03T01:02:39.828Z,101598.69
2022-09-03T01:05:25.991Z,101606.56
2022-09-03T01:08:04.998Z,101603.94
2022-09-03T01:11:00.610Z,101603.94
2022-09-03T01:13:48.346Z,101599.53
2022-09-03T01:16:28.836Z,101595.06
2022-09-03T01:19:06.893Z,101599.56
2022-09-03T01:21:48.586Z,101601.28
2022-09-03T01:24:17.777Z,101602.19
2022-09-03T01:27:15.738Z,101598.69
2022-09-03T01:29:55.595Z,101600.44
2022-09-03T01:32:29.213Z,101590.75
2022-09-03T01:35:04.323Z,101595.16
2022-09-03T01:37:42.937Z,101593.41
2022-09-03T01:40:38.113Z,101596.06
2022-09-03T01:43:34.103Z,101599.56
2022-09-03T01:46:15.309Z,101599.56
2022-09-03T01:48:48.034Z,101603.97
2022-09-03T01:51:25.916Z,101603.94
2022-09-03T01:54:20.745Z,101591.69
2022-09-03T01:57:01.028Z,101603.09
2022-09-03T01:59:40.390Z,101599.56
2022-09-03T02:02:21.221Z,101593.44
2022-09-03T02:05:09.234Z,101594.31
2022-09-03T02:07:41.873Z,101591.69
2022-09-03T02:10:12.440Z,101596.03
2022-09-03T02:12:40.240Z,101584.63
2022-09-03T02:15:11.804Z,101589.91
2022-09-03T02:17:38.646Z,101589.03
2022-09-03T02:20:10.863Z,101586.44
2022-09-03T02:22:39.338Z,101580.25
2022-09-03T02:25:07.599Z,101585.53
2022-09-03T02:27:34.149Z,101582.03
2022-09-03T02:30:00.871Z,101584.66
2022-09-03T02:32:28.156Z,101578.53
2022-09-03T02:34:54.660Z,101583.75
2022-09-03T02:37:21.214Z,101579.38
2022-09-03T02:39:47.852Z,101574.13
2022-09-03T02:42:15.994Z,101569.75
2022-09-03T02:44:49.089Z,101571.50
2022-09-03T02:47:15.589Z,101572.38
2022-09-03T02:49:42.334Z,101572.38
2022-09-03T02:52:11.900Z,101578.50
2022-09-03T02:54:40.068Z,101565.34
2022-09-03T02:57:11.898Z,101576.75
2022-09-03T02:59:39.818Z,101567.09
2022-09-03T03:02:06.476Z,101574.09
2022-09-03T03:04:33.392Z,101567.09
2022-09-03T03:06:59.893Z,101567.97
2022-09-03T03:09:26.566Z,101571.44
2022-09-03T03:11:55.397Z,101572.31
2022-09-03T03:14:22.757Z,101571.41
2022-09-03T03:16:50.018Z,101576.66
2022-09-03T03:19:16.612Z,101580.22
2022-09-03T03:21:43.403Z,101576.66
2022-09-03T03:24:09.988Z,101574.03
2022-09-03T03:26:36.468Z,101574.03
2022-09-03T03:29:06.380Z,101580.16
2022-09-03T03:31:33.351Z,101575.75
2022-09-03T03:34:02.126Z,101572.22
2022-09-03T03:36:30.962Z,101571.41
2022-09-03T03:38:58.929Z,101575.63
2022-09-03T03:41:31.519Z,101576.44
2022-09-03T03:44:01.420Z,101586.19
2022-09-03T03:46:33.512Z,101572.09
2022-09-03T03:49:01.153Z,101587.03
2022-09-03T03:51:27.931Z,101584.41
2022-09-03T03:54:00.183Z,101582.69
2022-09-03T03:56:29.657Z,101581.72
2022-09-03T03:58:57.235Z,101584.41
2022-09-03T04:01:26.308Z,101587.91
2022-09-03T04:03:55.609Z,101589.59
2022-09-03T04:06:23.553Z,101587.59
2022-09-03T04:08:50.462Z,101591.34
2022-09-03T04:11:19.716Z,101586.03
2022-09-03T04:13:47.432Z,101598.16
2022-09-03T04:16:22.056Z,101603.44
2022-09-03T04:18:49.384Z,101605.31
2022-09-03T04:21:21.948Z,101599.81
2022-09-03T04:23:49.703Z,101606.91
2022-09-03T04:26:19.225Z,101597.28
2022-09-03T04:28:45.764Z,101598.03
2022-09-03T04:31:14.356Z,101601.63
2022-09-03T04:33:42.374Z,101606.03
2022-09-03T04:36:22.815Z,101605.00
2022-09-03T04:38:51.366Z,101607.84
2022-09-03T04:41:20.724Z,101610.47
2022-09-03T04:43:51.471Z,101602.59
2022-09-03T04:46:18.564Z,101604.41
2022-09-03T04:48:48.448Z,101602.59
2022-09-03T04:51:17.444Z,101606.94
2022-09-03T04:53:49.015Z,101612.28
2022-09-03T04:56:20.388Z,101608.72
2022-09-03T04:58:51.106Z,101610.50
2022-09-03T05:01:19.791Z,101607.13
2022-09-03T05:03:46.614Z,101606.25
2022-09-03T05:06:17.106Z,101613.94
2022-09-03T05:08:46.014Z,101617.56
2022-09-03T05:11:12.491Z,101616.72
2022-09-03T05:13:40.053Z,101617.69
2022-09-03T05:16:09.056Z,101611.56
2022-09-03T05:18:35.989Z,101624.75
2022-09-03T05:21:03.707Z,101619.66
2022-09-03T05:23:37.574Z,101632.72
2022-09-03T05:26:09.092Z,101618.75
2022-09-03T05:28:39.114Z,101626.63
2022-09-03T05:31:18.525Z,101620.53
2022-09-03T05:33:47.302Z,101621.50
2022-09-03T05:36:16.215Z,101621.44
2022-09-03T05:38:43.332Z,101624.09
2022-09-03T05:41:11.545Z,101618.00
2022-09-03T05:43:38.942Z,101611.84
2022-09-03T05:46:07.913Z,101617.13
2022-09-03T05:48:35.753Z,101610.97
2022-09-03T05:51:04.315Z,101617.16
2022-09-03T05:53:33.702Z,101610.97
2022-09-03T05:56:01.770Z,101609.22
2022-09-03T05:58:32.573Z,101604.81
2022-09-03T06:00:59.313Z,101611.88
2022-09-03T06:03:26.486Z,101616.22
2022-09-03T06:05:54.434Z,101610.06
2022-09-03T06:08:22.112Z,101609.16
2022-09-03T06:10:48.660Z,101605.59
2022-09-03T06:13:15.166Z,101615.31
2022-09-03T06:15:41.782Z,101611.81
2022-09-03T06:18:08.269Z,101614.47
2022-09-03T06:20:37.184Z,101615.28
2022-09-03T06:23:04.362Z,101621.47
2022-09-03T06:25:32.031Z,101625.88
2022-09-03T06:27:59.185Z,101614.41
2022-09-03T06:30:26.852Z,101612.72
2022-09-03T06:32:54.159Z,101607.47
2022-09-03T06:35:20.746Z,101612.72
2022-09-03T06:37:47.269Z,101610.97
2022-09-03T06:40:14.271Z,101611.84
2022-09-03T06:42:45.877Z,101615.38
2022-09-03T06:45:13.135Z,101616.22
2022-09-03T06:47:39.589Z,101615.34
2022-09-03T06:50:06.868Z,101618.00
2022-09-03T06:52:33.492Z,101617.97
2022-09-03T06:55:00.134Z,101623.25
2022-09-03T06:57:26.607Z,101625.00
2022-09-03T06:59:55.504Z,101633.72
2022-09-03T07:02:23.072Z,101625.88
2022-09-03T07:04:49.995Z,101623.16
2022-09-03T07:07:16.503Z,101630.19
2022-09-03T07:09:46.364Z,101637.91
2022-09-03T07:12:16.910Z,101631.09
2022-09-03T07:14:43.389Z,101628.19
2022-09-03T07:17:09.921Z,101616.81
2022-09-03T07:19:36.424Z,101631.59
2022-09-03T07:22:02.883Z,101630.72
2022-09-03T07:24:29.434Z,101625.34
2022-09-03T07:26:58.115Z,101627.91
2022-09-03T07:29:24.654Z,101624.84
2022-09-03T07:31:52.201Z,101624.13
2022-09-03T07:34:20.389Z,101613.06
2022-09-03T07:36:51.160Z,101620.53
2022-09-03T07:39:18.409Z,101622.09
2022-09-03T07:41:46.226Z,101622.47
2022-09-03T07:44:19.555Z,101619.38
2022-09-03T07:46:47.990Z,101616.22
2022-09-03T07:49:14.773Z,101619.56
2022-09-03T07:51:41.303Z,101617.94
2022-09-03T07:54:10.918Z,101624.25
2022-09-03T07:56:39.320Z,101613.00
2022-09-03T07:59:06.449Z,101617.06
2022-09-03T08:01:33.902Z,101608.72
2022-09-03T08:04:01.676Z,101601.91
2022-09-03T08:06:29.465Z,101613.94
2022-09-03T08:09:04.563Z,101607.91
2022-09-03T08:11:35.121Z,101604.88
2022-09-03T08:14:07.565Z,101605.56
2022-09-03T08:16:36.883Z,101596.09
2022-09-03T08:19:04.438Z,101599.47
2022-09-03T08:21:30.972Z,101602.59
2022-09-03T08:24:03.954Z,101602.91
2022-09-03T08:26:35.118Z,101604.00
2022-09-03T08:29:02.496Z,101598.97
2022-09-03T08:31:30.058Z,101600.34
2022-09-03T08:33:58.013Z,101608.50
2022-09-03T08:36:32.036Z,101600.41
2022-09-03T08:39:04.082Z,101602.03
2022-09-03T08:42:19.019Z,101597.28
2022-09-03T08:45:09.216Z,101599.53
2022-09-03T08:48:08.390Z,101596.38
2022-09-03T08:50:39.476Z,101586.19
2022-09-03T08:53:22.978Z,101598.59
2022-09-03T08:55:50.661Z,101597.53
2022-09-03T08:58:26.816Z,101607.78
2022-09-03T09:01:11.948Z,101605.63
2022-09-03T09:03:53.669Z,101608.09
2022-09-03T09:06:25.851Z,101596.66
2022-09-03T09:09:18.837Z,101603.16
2022-09-03T09:11:48.313Z,101597.16
2022-09-03T09:14:50.091Z,101587.88
2022-09-03T09:17:32.549Z,101589.78
2022-09-03T09:20:12.975Z,101585.06
2022-09-03T09:22:42.535Z,101593.00
2022-09-03T09:25:18.310Z,101595.69
2022-09-03T09:28:05.804Z,101589.44
2022-09-03T09:30:32.974Z,101587.91
2022-09-03T09:33:00.649Z,101582.66
2022-09-03T09:35:27.440Z,101585.94
2022-09-03T09:37:56.386Z,101583.16
2022-09-03T09:40:44.846Z,101584.09
2022-09-03T09:43:17.322Z,101577.84
2022-09-03T09:45:45.981Z,101573.28
2022-09-03T09:48:33.665Z,101578.97
2022-09-03T09:51:09.143Z,101581.22
2022-09-03T09:53:36.261Z,101588.38
2022-09-03T09:56:05.798Z,101583.41
2022-09-03T09:58:34.081Z,101570.13
2022-09-03T10:01:04.069Z,101569.72
2022-09-03T10:03:35.055Z,101567.34
2022-09-03T10:06:32.748Z,101563.13
2022-09-03T10:09:07.585Z,101575.47
2022-09-03T10:11:39.804Z,101572.59
2022-09-03T10:14:12.863Z,101562.19
2022-09-03T10:16:48.903Z,101563.00
2022-09-03T10:19:22.208Z,101562.94
2022-09-03T10:22:10.337Z,101555.72
2022-09-03T10:24:49.110Z,101553.75
2022-09-03T10:27:17.551Z,101554.63
2022-09-03T10:29:44.508Z,101549.03
2022-09-03T10:32:27.428Z,101553.59
2022-09-03T10:35:20.671Z,101555.69
2022-09-03T10:38:26.272Z,101554.56
2022-09-03T10:41:05.928Z,101561.06
2022-09-03T10:44:10.685Z,101558.06
2022-09-03T10:46:46.764Z,101556.22
2022-09-03T10:49:35.971Z,101558.41
2022-09-03T10:52:10.338Z,101554.41
2022-09-03T10:54:59.184Z,101542.22
2022-09-03T10:58:07.883Z,101541.94
2022-09-03T11:00:37.102Z,101532.59
2022-09-03T11:03:39.110Z,101532.28
2022-09-03T11:06:13.004Z,101528.97
2022-09-03T11:08:44.598Z,101534.81
2022-09-03T11:11:22.106Z,101525.38
2022-09-03T11:13:55.091Z,101522.59
2022-09-03T11:16:27.012Z,101524.56
2022-09-03T11:19:06.199Z,101514.47
2022-09-03T11:21:33.628Z,101528.81
2022-09-03T11:24:13.647Z,101522.69
2022-09-03T11:26:55.304Z,101519.47
2022-09-03T11:29:49.747Z,101511.28
2022-09-03T11:32:21.843Z,101514.09
2022-09-03T11:34:50.634Z,101509.16
2022-09-03T11:37:25.400Z,101510.75
2022-09-03T11:39:57.617Z,101497.63
2022-09-03T11:42:30.204Z,101486.09
2022-09-03T11:45:01.629Z,101494.78
2022-09-03T11:47:40.229Z,101501.06
2022-09-03T11:50:50.897Z,101494.38
2022-09-03T11:53:20.128Z,101491.53
2022-09-03T11:55:56.541Z,101491.47
2022-09-03T11:58:35.646Z,101489.34
2022-09-03T12:01:03.937Z,101490.94
2022-09-03T12:06:06.968Z,101485.47
2022-09-03T12:09:03.166Z,101478.19
2022-09-03T12:11:56.236Z,101477.25
2022-09-03T12:14:22.674Z,101478.22
2022-09-03T12:16:52.446Z,101477.75
2022-09-03T12:19:55.076Z,101479.41
2022-09-03T12:22:24.037Z,101471.63
2022-09-03T12:24:51.690Z,101467.41
2022-09-03T12:27:26.751Z,101466.16
2022-09-03T12:29:56.693Z,101468.56
2022-09-03T12:32:23.542Z,101469.00
2022-09-03T12:34:50.822Z,101479.81
2022-09-03T12:40:22.154Z,101464.78
2022-09-03T12:42:49.119Z,101464.13
2022-09-03T12:45:23.796Z,101464.50
2022-09-03T12:47:51.353Z,101457.50
2022-09-03T12:50:21.221Z,101459.13
2022-09-03T12:52:54.308Z,101455.56
2022-09-03T12:55:48.184Z,101451.16
2022-09-03T12:58:25.880Z,101446.91
2022-09-03T13:00:58.700Z,101452.38
2022-09-03T13:03:39.929Z,101456.34
2022-09-03T13:06:08.815Z,101456.56
2022-09-03T13:08:45.317Z,101461.78
2022-09-03T13:11:16.746Z,101460.75
2022-09-03T13:13:54.007Z,101458.47
2022-09-03T13:16:47.127Z,101444.00
2022-09-03T13:19:38.694Z,101458.66
2022-09-03T13:22:43.004Z,101450.88
2022-09-03T13:25:38.734Z,101448.59
2022-09-03T13:28:18.084Z,101450.19
2022-09-03T13:30:59.723Z,101454.38
2022-09-03T13:33:33.468Z,101456.81
2022-09-03T13:36:03.497Z,101452.06
2022-09-03T13:38:38.615Z,101446.25
2022-09-03T13:41:34.662Z,101445.38
2022-09-03T13:44:14.859Z,101448.63
2022-09-03T13:46:52.400Z,101446.16
2022-09-03T13:49:43.657Z,101452.56
2022-09-03T13:52:44.481Z,101448.50
2022-09-03T13:55:31.637Z,101455.16
2022-09-03T13:58:16.852Z,101449.69
2022-09-03T14:00:46.985Z,101443.16
2022-09-03T14:03:33.506Z,101438.28
2022-09-03T14:06:10.132Z,101439.66
2022-09-03T14:09:04.952Z,101449.75
2022-09-03T14:11:53.143Z,101442.03
2022-09-03T14:14:32.157Z,101438.47
2022-09-03T14:17:14.261Z,101429.31
2022-09-03T14:19:43.781Z,101432.72
2022-09-03T14:22:15.742Z,101431.03
2022-09-03T14:24:49.737Z,101445.00
2022-09-03T14:27:25.359Z,101438.56
2022-09-03T14:29:58.744Z,101440.50
2022-09-03T14:32:35.640Z,101438.94
2022-09-03T14:35:11.609Z,101440.75
2022-09-03T14:38:00.272Z,101442.03
2022-09-03T14:40:46.002Z,101434.97
2022-09-03T14:43:18.441Z,101425.72
2022-09-03T14:46:05.574Z,101421.53
2022-09-03T14:48:44.729Z,101413.00
2022-09-03T14:51:33.135Z,101410.75
2022-09-03T14:54:24.531Z,101410.41
2022-09-03T14:57:26.746Z,101422.69
2022-09-03T15:00:18.411Z,101409.50
2022-09-03T15:03:05.252Z,101416.22
2022-09-03T15:06:05.047Z,101413.75
2022-09-03T15:08:47.802Z,101425.41
2022-09-03T15:11:23.201Z,101415.75
2022-09-03T15:14:00.041Z,101422.75
2022-09-03T15:16:45.532Z,101427.34
2022-09-03T15:19:36.637Z,101425.63
2022-09-03T15:22:24.941Z,101421.84
2022-09-03T15:25:10.208Z,101424.84
2022-09-03T15:28:02.428Z,101434.16
2022-09-03T15:30:45.905Z,101433.81
2022-09-03T15:33:35.853Z,101432.56
2022-09-03T15:36:24.674Z,101435.28
2022-09-03T15:38:54.268Z,101431.03
2022-09-03T15:41:32.967Z,101432.97
2022-09-03T15:44:00.518Z,101429.69
2022-09-03T15:46:36.066Z,101432.63
2022-09-03T15:49:29.052Z,101432.22
2022-09-03T15:52:24.854Z,101433.81
2022-09-03T15:55:11.434Z,101432.78
2022-09-03T15:57:48.609Z,101433.13
2022-09-03T16:00:21.512Z,101428.81
2022-09-03T16:02:59.091Z,101432.81
2022-09-03T16:05:46.842Z,101431.53
2022-09-03T16:08:32.628Z,101437.06
2022-09-03T16:11:10.021Z,101428.22
2022-09-03T16:13:44.993Z,101435.44
2022-09-03T16:16:16.194Z,101440.47
2022-09-03T16:19:10.548Z,101439.59
2022-09-03T16:21:51.637Z,101445.38
2022-09-03T16:24:23.178Z,101442.53
2022-09-03T16:27:03.834Z,101446.50
2022-09-03T16:29:31.176Z,101449.41
2022-09-03T16:32:12.668Z,101451.22
2022-09-03T16:34:48.280Z,101451.56
2022-09-03T16:37:35.605Z,101452.88
2022-09-03T16:40:38.640Z,101448.59
2022-09-03T16:43:42.591Z,101446.84
2022-09-03T16:46:26.668Z,101452.88
2022-09-03T16:49:04.690Z,101449.00
2022-09-03T16:51:49.341Z,101450.31
2022-09-03T16:54:28.227Z,101447.19
2022-09-03T16:57:11.432Z,101456.94
2022-09-03T16:59:51.049Z,101448.50
2022-09-03T17:02:40.643Z,101449.91
2022-09-03T17:05:29.210Z,101458.88
2022-09-03T17:08:22.081Z,101451.94
2022-09-03T17:11:20.312Z,101455.59
2022-09-03T17:14:11.253Z,101458.84
2022-09-03T17:16:50.971Z,101455.75
2022-09-03T17:19:39.881Z,101459.47
2022-09-03T17:22:26.577Z,101455.97
2022-09-03T17:25:14.210Z,101460.50
2022-09-03T17:27:47.549Z,101468.84
2022-09-03T17:30:20.364Z,101470.00
2022-09-03T17:33:06.357Z,101463.91
2022-09-03T17:35:46.449Z,101470.63
2022-09-03T17:38:31.705Z,101472.50
2022-09-03T17:41:19.901Z,101461.88
2022-09-03T17:44:21.950Z,101467.84
2022-09-03T17:47:00.399Z,101463.88
2022-09-03T17:49:34.393Z,101474.56
2022-09-03T17:52:04.699Z,101482.56
2022-09-03T17:54:37.070Z,101483.72
2022-09-03T17:57:19.941Z,101484.25
2022-09-03T17:59:59.989Z,101492.06
2022-09-03T18:02:43.387Z,101488.81
2022-09-03T18:05:26.242Z,101497.66
2022-09-03T18:08:11.353Z,101503.56
2022-09-03T18:11:02.481Z,101507.38
2022-09-03T18:13:43.014Z,101514.69
2022-09-03T18:16:13.278Z,101516.91
2022-09-03T18:18:47.316Z,101522.22
2022-09-03T18:21:38.646Z,101529.44
2022-09-03T18:24:42.129Z,101525.38
2022-09-03T18:27:34.910Z,101540.59
2022-09-03T18:30:20.033Z,101533.34
2022-09-03T18:33:05.601Z,101539.88
2022-09-03T18:35:53.328Z,101538.50
2022-09-03T18:38:47.202Z,101543.84
2022-09-03T18:41:57.633Z,101552.78
2022-09-03T18:45:22.337Z,101546.03
2022-09-03T18:48:37.378Z,101554.75
2022-09-03T18:51:56.748Z,101554.13
2022-09-03T18:55:07.785Z,101561.75
2022-09-03T18:57:59.980Z,101567.97
2022-09-03T19:00:48.784Z,101563.97
2022-09-03T19:03:54.558Z,101571.28
2022-09-03T19:07:05.518Z,101574.44
2022-09-03T19:10:04.916Z,101571.16
2022-09-03T19:13:02.779Z,101567.69
2022-09-03T19:15:51.462Z,101566.94
2022-09-03T19:18:54.898Z,101571.19
2022-09-03T19:21:59.745Z,101579.44
2022-09-03T19:24:48.706Z,101587.59
2022-09-03T19:27:58.649Z,101580.59
2022-09-03T19:30:50.839Z,101585.56
2022-09-03T19:33:46.564Z,101582.50
2022-09-03T19:36:51.532Z,101590.16
2022-09-03T19:40:11.873Z,101593.72
2022-09-03T19:43:04.049Z,101589.56
2022-09-03T19:46:19.011Z,101593.16
2022-09-03T19:49:27.984Z,101601.06
2022-09-03T19:52:47.980Z,101599.25
2022-09-03T19:55:42.766Z,101598.47
2022-09-03T19:58:42.490Z,101600.91
2022-09-03T20:01:28.572Z,101595.66
2022-09-03T20:04:15.728Z,101605.38
2022-09-03T20:07:00.965Z,101598.34
2022-09-03T20:09:49.514Z,101598.25
2022-09-03T20:12:17.564Z,101603.50
2022-09-03T20:14:44.046Z,101609.84
2022-09-03T20:17:21.657Z,101613.25
2022-09-03T20:20:07.579Z,101610.53
2022-09-03T20:22:44.734Z,101613.13
2022-09-03T20:25:36.057Z,101609.63
2022-09-03T20:28:21.351Z,101608.94
2022-09-03T20:30:57.355Z,101617.53
2022-09-03T20:33:30.354Z,101622.00
2022-09-03T20:36:04.907Z,101622.75
2022-09-03T20:39:05.917Z,101620.97
2022-09-03T20:41:37.480Z,101621.03
2022-09-03T20:44:52.629Z,101620.84
2022-09-03T20:47:41.194Z,101623.75
2022-09-03T20:50:26.289Z,101621.84
2022-09-03T20:53:11.127Z,101625.56
2022-09-03T20:55:45.969Z,101630.53
2022-09-03T20:58:15.300Z,101633.38
2022-09-03T21:00:48.671Z,101635.44
2022-09-03T21:03:21.111Z,101639.53
2022-09-03T21:06:10.080Z,101637.75
2022-09-03T21:08:58.434Z,101642.28
2022-09-03T21:11:43.600Z,101644.06
2022-09-03T21:14:26.712Z,101638.75
2022-09-03T21:17:20.506Z,101643.22
2022-09-03T21:20:01.045Z,101637.09
2022-09-03T21:23:00.250Z,101641.47
2022-09-03T21:25:31.834Z,101645.88
2022-09-03T21:28:04.550Z,101645.00
2022-09-03T21:30:31.629Z,101642.31
2022-09-03T21:33:19.583Z,101642.38
2022-09-03T21:35:51.543Z,101650.25
2022-09-03T21:38:24.456Z,101644.84
2022-09-03T21:41:28.474Z,101648.66
2022-09-03T21:44:00.014Z,101652.91
2022-09-03T21:46:40.402Z,101657.31
2022-09-03T21:49:11.093Z,101654.72
2022-09-03T21:51:44.049Z,101658.25
2022-09-03T21:54:30.759Z,101655.59
2022-09-03T21:57:12.270Z,101652.13
2022-09-03T22:00:08.432Z,101658.25
2022-09-03T22:02:36.242Z,101655.75
2022-09-03T22:05:04.029Z,101662.75
2022-09-03T22:07:42.340Z,101664.50
2022-09-03T22:10:11.900Z,101662.69
2022-09-03T22:12:55.556Z,101656.56
2022-09-03T22:15:22.402Z,101656.56
2022-09-03T22:17:54.462Z,101657.47
2022-09-03T22:20:23.136Z,101659.22
2022-09-03T22:22:59.093Z,101659.22
2022-09-03T22:25:49.167Z,101654.84
2022-09-03T22:28:31.109Z,101659.25
2022-09-03T22:31:04.811Z,101659.22
2022-09-03T22:33:53.211Z,101667.16
2022-09-03T22:36:35.794Z,101664.50
2022-09-03T22:39:21.397Z,101664.53
2022-09-03T22:42:03.015Z,101666.25
2022-09-03T22:44:49.697Z,101657.41
2022-09-03T22:47:25.318Z,101654.88
2022-09-03T22:50:03.976Z,101662.75
2022-09-03T22:52:41.484Z,101658.34
2022-09-03T22:55:21.322Z,101660.13
2022-09-03T22:58:25.120Z,101655.72
2022-09-03T23:01:20.677Z,101649.63
2022-09-03T23:03:52.758Z,101658.41
2022-09-03T23:06:38.521Z,101659.25
2022-09-03T23:09:08.230Z,101660.16
2022-09-03T23:11:42.229Z,101654.00
2022-09-03T23:14:15.205Z,101670.66
2022-09-03T23:16:47.090Z,101661.00
2022-09-03T23:19:40.354Z,101671.53
2022-09-03T23:22:09.510Z,101668.03
2022-09-03T23:24:42.292Z,101675.94
2022-09-03T23:27:14.156Z,101673.28
2022-09-03T23:29:56.644Z,101671.56
2022-09-03T23:32:25.470Z,101675.06
2022-09-03T23:34:55.158Z,101668.91
2022-09-03T23:37:50.555Z,101674.16
2022-09-03T23:40:25.856Z,101670.66
2022-09-03T23:43:16.870Z,101667.16
2022-09-03T23:45:52.199Z,101667.16
2022-09-03T23:48:31.192Z,101675.00
2022-09-03T23:51:15.975Z,101673.25
2022-09-03T23:54:13.113Z,101672.38
2022-09-03T23:56:58.464Z,101668.88
2022-09-03T23:59:43.138Z,101676.78
